createdAt,value
2023-04-27T00:00:53.829Z,40.38
2023-04-27T00:01:53.911Z,40.11
2023-04-27T00:02:53.980Z,39.15
2023-04-27T00:03:53.933Z,39.69
2023-04-27T00:04:53.938Z,40.31
2023-04-27T00:05:53.859Z,40.00
2023-04-27T00:06:53.786Z,39.76
2023-04-27T00:07:53.755Z,40.02
2023-04-27T00:08:53.760Z,40.22
2023-04-27T00:09:53.731Z,39.88
2023-04-27T00:10:53.734Z,39.97
2023-04-27T00:11:54.727Z,40.83
2023-04-27T00:12:53.714Z,41.16
2023-04-27T00:13:53.720Z,41.67
2023-04-27T00:14:53.702Z,42.16
2023-04-27T00:15:53.774Z,43.69
2023-04-27T00:16:53.741Z,40.61
2023-04-27T00:17:53.706Z,39.80
2023-04-27T00:18:53.638Z,40.26
2023-04-27T00:19:53.659Z,39.71
2023-04-27T00:20:53.611Z,40.74
2023-04-27T00:21:53.633Z,40.01
2023-04-27T00:22:53.588Z,39.79
2023-04-27T00:23:53.585Z,39.84
2023-04-27T00:24:53.600Z,39.45
2023-04-27T00:25:53.594Z,39.35
2023-04-27T00:26:53.587Z,38.47
2023-04-27T00:27:53.572Z,38.77
2023-04-27T00:28:53.534Z,38.85
2023-04-27T00:29:53.549Z,39.18
2023-04-27T00:30:53.522Z,39.18
2023-04-27T00:31:53.571Z,38.91
2023-04-27T00:32:53.512Z,38.83
2023-04-27T00:33:53.497Z,38.99
2023-04-27T00:34:53.485Z,39.19
2023-04-27T00:35:53.478Z,38.58
2023-04-27T00:36:53.470Z,38.70
2023-04-27T00:37:53.478Z,38.96
2023-04-27T00:38:53.461Z,38.30
2023-04-27T00:39:53.453Z,38.13
2023-04-27T00:40:53.437Z,38.22
2023-04-27T00:41:53.458Z,38.34
2023-04-27T00:42:53.436Z,39.73
2023-04-27T00:43:53.389Z,38.45
2023-04-27T00:44:53.402Z,39.41
2023-04-27T00:45:53.418Z,40.07
2023-04-27T00:46:53.410Z,40.01
2023-04-27T00:47:53.427Z,39.78
2023-04-27T00:48:53.365Z,39.96
2023-04-27T00:49:53.353Z,40.09
2023-04-27T00:50:53.339Z,44.51
2023-04-27T00:51:53.321Z,40.33
2023-04-27T00:52:53.311Z,40.68
2023-04-27T00:53:53.289Z,40.47
2023-04-27T00:54:53.268Z,39.82
2023-04-27T00:55:53.272Z,41.26
2023-04-27T00:56:53.287Z,41.00
2023-04-27T00:57:53.271Z,40.22
2023-04-27T00:58:53.241Z,39.28
2023-04-27T00:59:53.234Z,39.78
2023-04-27T01:00:53.258Z,39.87
2023-04-27T01:01:53.251Z,42.38
2023-04-27T01:02:53.359Z,40.49
2023-04-27T01:03:53.373Z,39.70
2023-04-27T01:04:53.193Z,39.70
2023-04-27T01:05:53.176Z,39.16
2023-04-27T01:06:53.204Z,39.49
2023-04-27T01:07:53.162Z,39.90
2023-04-27T01:08:53.162Z,39.27
2023-04-27T01:09:53.145Z,38.98
2023-04-27T01:10:53.145Z,39.47
2023-04-27T01:11:53.150Z,39.99
2023-04-27T01:12:53.132Z,40.45
2023-04-27T01:13:53.110Z,39.52
2023-04-27T01:14:53.092Z,40.96
2023-04-27T01:15:53.075Z,41.79
2023-04-27T01:16:53.106Z,38.95
2023-04-27T01:17:53.126Z,38.27
2023-04-27T01:18:53.049Z,39.71
2023-04-27T01:19:53.041Z,38.98
2023-04-27T01:20:53.049Z,39.46
2023-04-27T01:21:53.014Z,42.86
2023-04-27T01:22:53.029Z,39.29
2023-04-27T01:23:52.994Z,39.58
2023-04-27T01:24:52.990Z,39.71
2023-04-27T01:25:52.969Z,40.07
2023-04-27T01:26:52.970Z,39.13
2023-04-27T01:27:52.958Z,39.10
2023-04-27T01:28:52.943Z,39.50
2023-04-27T01:29:52.936Z,42.51
2023-04-27T01:30:52.936Z,41.84
2023-04-27T01:31:52.915Z,40.39
2023-04-27T01:32:52.933Z,39.66
2023-04-27T01:33:52.908Z,40.74
2023-04-27T01:34:52.887Z,42.81
2023-04-27T01:35:52.909Z,39.30
2023-04-27T01:36:52.868Z,39.56
2023-04-27T01:37:52.872Z,40.83
2023-04-27T01:38:52.853Z,42.12
2023-04-27T01:39:52.850Z,43.10
2023-04-27T01:40:52.842Z,41.01
2023-04-27T01:41:52.812Z,41.21
2023-04-27T01:42:52.818Z,40.02
2023-04-27T01:43:52.850Z,40.58
2023-04-27T01:44:52.816Z,41.58
2023-04-27T01:45:52.807Z,40.46
2023-04-27T01:46:52.778Z,39.65
2023-04-27T01:47:52.857Z,39.48
2023-04-27T01:48:52.749Z,40.12
2023-04-27T01:49:52.756Z,40.76
2023-04-27T01:50:52.740Z,40.21
2023-04-27T01:51:52.710Z,41.17
2023-04-27T01:52:52.709Z,40.56
2023-04-27T01:53:52.718Z,46.34
2023-04-27T01:54:52.704Z,41.52
2023-04-27T01:55:52.675Z,39.16
2023-04-27T01:56:52.673Z,38.33
2023-04-27T01:57:52.689Z,39.33
2023-04-27T01:58:52.657Z,39.88
2023-04-27T01:59:52.640Z,43.31
2023-04-27T02:00:52.630Z,38.97
2023-04-27T02:01:52.668Z,38.56
2023-04-27T02:02:52.694Z,39.74
2023-04-27T02:03:52.731Z,39.40
2023-04-27T02:04:52.653Z,39.48
2023-04-27T02:05:52.587Z,40.05
2023-04-27T02:06:52.585Z,42.07
2023-04-27T02:07:52.581Z,40.96
2023-04-27T02:08:52.564Z,40.38
2023-04-27T02:09:52.547Z,38.60
2023-04-27T02:10:52.543Z,39.27
2023-04-27T02:11:52.531Z,39.46
2023-04-27T02:12:52.528Z,39.52
2023-04-27T02:13:52.517Z,39.67
2023-04-27T02:14:52.476Z,39.67
2023-04-27T02:15:52.883Z,41.43
2023-04-27T02:16:52.476Z,45.47
2023-04-27T02:17:52.527Z,40.62
2023-04-27T02:18:52.461Z,39.04
2023-04-27T02:19:52.448Z,38.91
2023-04-27T02:20:52.465Z,43.38
2023-04-27T02:21:52.437Z,40.68
2023-04-27T02:22:52.435Z,45.26
2023-04-27T02:23:52.399Z,46.15
2023-04-27T02:24:52.385Z,40.52
2023-04-27T02:25:52.391Z,40.35
2023-04-27T02:26:52.380Z,40.86
2023-04-27T02:27:52.363Z,41.93
2023-04-27T02:28:53.364Z,43.10
2023-04-27T02:29:52.350Z,43.03
2023-04-27T02:30:52.337Z,42.85
2023-04-27T02:31:52.396Z,44.79
2023-04-27T02:32:52.358Z,43.44
2023-04-27T02:33:52.322Z,45.63
2023-04-27T02:34:52.279Z,44.70
2023-04-27T02:35:52.303Z,44.38
2023-04-27T02:36:52.276Z,48.95
2023-04-27T02:37:52.287Z,45.56
2023-04-27T02:38:52.300Z,45.25
2023-04-27T02:39:52.258Z,45.61
2023-04-27T02:40:52.249Z,45.67
2023-04-27T02:41:53.520Z,45.17
2023-04-27T02:42:52.229Z,44.79
2023-04-27T02:43:52.305Z,48.57
2023-04-27T02:44:52.212Z,46.27
2023-04-27T02:45:52.210Z,45.88
2023-04-27T02:46:52.209Z,44.62
2023-04-27T02:47:52.273Z,45.48
2023-04-27T02:48:52.206Z,43.58
2023-04-27T02:49:52.188Z,45.13
2023-04-27T02:50:52.157Z,44.90
2023-04-27T02:51:52.150Z,46.25
2023-04-27T02:52:52.166Z,49.97
2023-04-27T02:53:52.130Z,45.91
2023-04-27T02:54:52.106Z,47.52
2023-04-27T02:55:52.094Z,51.11
2023-04-27T02:56:52.072Z,52.00
2023-04-27T02:57:52.078Z,46.20
2023-04-27T02:58:52.111Z,45.31
2023-04-27T02:59:52.085Z,45.19
2023-04-27T03:00:52.059Z,48.78
2023-04-27T03:01:52.032Z,47.37
2023-04-27T03:02:52.137Z,47.12
2023-04-27T03:03:52.192Z,49.05
2023-04-27T03:04:52.067Z,47.71
2023-04-27T03:05:52.004Z,51.58
2023-04-27T03:06:52.016Z,48.71
2023-04-27T03:07:51.987Z,51.24
2023-04-27T03:08:51.983Z,48.46
2023-04-27T03:09:51.966Z,52.80
2023-04-27T03:10:51.927Z,51.54
2023-04-27T03:11:51.962Z,51.59
2023-04-27T03:12:51.940Z,50.04
2023-04-27T03:13:51.930Z,51.68
2023-04-27T03:14:51.920Z,52.63
2023-04-27T03:15:51.896Z,48.60
2023-04-27T03:16:51.948Z,51.51
2023-04-27T03:17:51.965Z,54.12
2023-04-27T03:18:51.885Z,55.36
2023-04-27T03:19:52.886Z,55.30
2023-04-27T03:20:51.879Z,53.61
2023-04-27T03:21:51.831Z,56.46
2023-04-27T03:22:51.853Z,53.38
2023-04-27T03:23:51.829Z,54.25
2023-04-27T03:24:51.812Z,55.19
2023-04-27T03:25:51.790Z,55.16
2023-04-27T03:26:51.772Z,51.69
2023-04-27T03:27:51.774Z,55.38
2023-04-27T03:28:51.781Z,55.79
2023-04-27T03:29:51.752Z,54.45
2023-04-27T03:30:51.768Z,56.61
2023-04-27T03:31:51.748Z,56.26
2023-04-27T03:32:51.754Z,54.97
2023-04-27T03:33:51.719Z,55.36
2023-04-27T03:34:51.728Z,54.67
2023-04-27T03:35:51.729Z,55.47
2023-04-27T03:36:51.707Z,54.60
2023-04-27T03:37:51.699Z,53.25
2023-04-27T03:38:51.685Z,53.81
2023-04-27T03:39:51.661Z,56.71
2023-04-27T03:40:51.647Z,55.11
2023-04-27T03:41:51.637Z,56.29
2023-04-27T03:42:52.633Z,54.78
2023-04-27T03:43:51.613Z,52.41
2023-04-27T03:44:51.630Z,55.43
2023-04-27T03:45:51.626Z,56.00
2023-04-27T03:46:51.633Z,54.28
2023-04-27T03:47:51.681Z,51.87
2023-04-27T03:48:51.621Z,54.90
2023-04-27T03:49:52.565Z,53.24
2023-04-27T03:50:51.543Z,53.11
2023-04-27T03:51:51.549Z,54.04
2023-04-27T03:52:51.545Z,53.03
2023-04-27T03:53:51.526Z,52.07
2023-04-27T03:54:51.507Z,51.96
2023-04-27T03:55:51.528Z,52.05
2023-04-27T03:56:51.478Z,51.90
2023-04-27T03:57:51.493Z,51.87
2023-04-27T03:58:51.476Z,51.04
2023-04-27T03:59:51.472Z,53.34
2023-04-27T04:00:51.455Z,55.07
2023-04-27T04:01:51.458Z,53.25
2023-04-27T04:02:51.647Z,53.03
2023-04-27T04:03:51.638Z,51.84
2023-04-27T04:04:51.627Z,55.28
2023-04-27T04:05:51.394Z,53.90
2023-04-27T04:06:51.406Z,53.71
2023-04-27T04:07:51.465Z,55.73
2023-04-27T04:08:51.405Z,51.48
2023-04-27T04:09:51.385Z,54.96
2023-04-27T04:10:51.378Z,55.02
2023-04-27T04:11:51.360Z,51.30
2023-04-27T04:12:51.343Z,49.56
2023-04-27T04:13:51.322Z,57.03
2023-04-27T04:14:51.309Z,51.79
2023-04-27T04:15:51.331Z,54.16
2023-04-27T04:16:51.334Z,51.94
2023-04-27T04:17:51.369Z,54.42
2023-04-27T04:18:51.275Z,54.42
2023-04-27T04:19:51.272Z,53.85
2023-04-27T04:20:51.275Z,57.15
2023-04-27T04:21:51.258Z,56.94
2023-04-27T04:22:51.260Z,53.78
2023-04-27T04:23:51.213Z,55.23
2023-04-27T04:24:51.231Z,54.03
2023-04-27T04:25:51.214Z,50.67
2023-04-27T04:26:51.203Z,52.52
2023-04-27T04:27:51.208Z,52.97
2023-04-27T04:28:51.199Z,53.98
2023-04-27T04:29:51.162Z,49.81
2023-04-27T04:30:51.160Z,55.20
2023-04-27T04:31:51.199Z,55.08
2023-04-27T04:32:51.242Z,52.96
2023-04-27T04:33:52.141Z,56.17
2023-04-27T04:34:51.108Z,51.95
2023-04-27T04:35:51.096Z,54.68
2023-04-27T04:36:51.093Z,51.46
2023-04-27T04:37:51.096Z,51.75
2023-04-27T04:38:51.091Z,52.15
2023-04-27T04:39:51.057Z,49.41
2023-04-27T04:40:51.063Z,53.52
2023-04-27T04:41:51.039Z,53.72
2023-04-27T04:42:51.020Z,50.21
2023-04-27T04:43:51.043Z,54.83
2023-04-27T04:44:51.041Z,50.19
2023-04-27T04:45:51.033Z,55.98
2023-04-27T04:46:51.072Z,51.77
2023-04-27T04:47:51.020Z,54.99
2023-04-27T04:48:52.189Z,51.36
2023-04-27T04:49:50.971Z,53.21
2023-04-27T04:50:50.935Z,50.34
2023-04-27T04:51:50.926Z,53.46
2023-04-27T04:52:50.930Z,53.42
2023-04-27T04:53:50.940Z,49.82
2023-04-27T04:54:50.942Z,51.06
2023-04-27T04:55:50.915Z,53.89
2023-04-27T04:56:50.867Z,54.40
2023-04-27T04:57:50.892Z,51.87
2023-04-27T04:58:50.874Z,53.04
2023-04-27T04:59:50.898Z,50.74
2023-04-27T05:00:50.856Z,53.86
2023-04-27T05:01:50.855Z,48.67
2023-04-27T05:02:50.977Z,52.44
2023-04-27T05:03:50.934Z,53.32
2023-04-27T05:04:50.841Z,50.90
2023-04-27T05:05:50.808Z,52.68
2023-04-27T05:06:50.774Z,54.59
2023-04-27T05:07:50.756Z,53.98
2023-04-27T05:08:50.768Z,54.31
2023-04-27T05:09:51.811Z,53.52
2023-04-27T05:10:50.731Z,54.89
2023-04-27T05:11:50.711Z,53.58
2023-04-27T05:12:50.731Z,58.54
2023-04-27T05:13:50.698Z,53.66
2023-04-27T05:14:50.715Z,53.26
2023-04-27T05:15:50.746Z,58.88
2023-04-27T05:16:50.687Z,57.81
2023-04-27T05:17:50.720Z,50.88
2023-04-27T05:18:50.653Z,53.15
2023-04-27T05:19:50.645Z,52.46
2023-04-27T05:20:50.618Z,56.63
2023-04-27T05:21:50.670Z,51.77
2023-04-27T05:22:50.622Z,57.49
2023-04-27T05:23:50.595Z,54.45
2023-04-27T05:24:50.594Z,51.83
2023-04-27T05:25:50.581Z,49.76
2023-04-27T05:26:50.563Z,51.51
2023-04-27T05:27:50.582Z,51.00
2023-04-27T05:28:50.585Z,52.27
2023-04-27T05:29:50.542Z,51.66
2023-04-27T05:30:50.609Z,50.49
2023-04-27T05:31:50.600Z,46.73
2023-04-27T05:32:50.602Z,49.78
2023-04-27T05:33:51.529Z,54.39
2023-04-27T05:34:50.510Z,51.55
2023-04-27T05:35:50.988Z,48.77
2023-04-27T05:36:50.531Z,49.88
2023-04-27T05:37:50.464Z,53.20
2023-04-27T05:38:50.466Z,55.06
2023-04-27T05:39:50.482Z,56.81
2023-04-27T05:40:50.471Z,50.97
2023-04-27T05:41:50.445Z,53.21
2023-04-27T05:42:50.464Z,52.78
2023-04-27T05:43:50.487Z,52.63
2023-04-27T05:44:50.441Z,51.63
2023-04-27T05:45:50.409Z,50.40
2023-04-27T05:46:50.415Z,51.05
2023-04-27T05:47:50.465Z,58.44
2023-04-27T05:48:50.468Z,53.77
2023-04-27T05:49:50.400Z,52.20
2023-04-27T05:50:50.361Z,54.97
2023-04-27T05:51:50.362Z,54.38
2023-04-27T05:52:50.347Z,53.89
2023-04-27T05:53:50.310Z,54.76
2023-04-27T05:54:50.304Z,54.29
2023-04-27T05:55:50.318Z,53.62
2023-04-27T05:56:50.353Z,55.36
2023-04-27T05:57:57.339Z,54.12
2023-04-27T05:58:52.291Z,51.46
2023-04-27T05:59:50.638Z,55.49
2023-04-27T06:00:50.316Z,48.10
2023-04-27T06:01:50.406Z,50.58
2023-04-27T06:02:50.458Z,51.55
2023-04-27T06:03:50.327Z,53.91
2023-04-27T06:04:50.294Z,54.38
2023-04-27T06:05:50.225Z,53.46
2023-04-27T06:06:50.242Z,49.10
2023-04-27T06:07:50.208Z,52.48
2023-04-27T06:08:50.219Z,54.26
2023-04-27T06:09:50.218Z,56.49
2023-04-27T06:10:50.170Z,49.82
2023-04-27T06:11:50.183Z,51.90
2023-04-27T06:12:50.119Z,51.38
2023-04-27T06:13:50.160Z,52.20
2023-04-27T06:14:52.187Z,50.12
2023-04-27T06:18:48.924Z,48.07
2023-04-27T06:19:48.867Z,46.11
2023-04-27T06:20:48.936Z,52.05
2023-04-27T06:21:49.833Z,46.33
2023-04-27T06:22:51.039Z,51.43
2023-04-27T06:23:48.857Z,49.19
2023-04-27T06:24:48.893Z,52.73
2023-04-27T06:25:48.869Z,48.22
2023-04-27T06:26:48.795Z,49.52
2023-04-27T06:27:48.814Z,47.81
2023-04-27T06:28:48.771Z,50.78
2023-04-27T06:29:48.755Z,51.76
2023-04-27T06:30:48.748Z,54.08
2023-04-27T06:31:48.772Z,44.91
2023-04-27T06:32:48.813Z,45.91
2023-04-27T06:33:48.735Z,45.70
2023-04-27T06:34:48.717Z,45.92
2023-04-27T06:35:48.745Z,40.44
2023-04-27T06:36:48.673Z,43.41
2023-04-27T06:37:48.690Z,46.32
2023-04-27T06:38:48.666Z,49.98
2023-04-27T06:39:48.703Z,49.84
2023-04-27T06:40:48.644Z,41.95
2023-04-27T06:41:48.859Z,51.36
2023-04-27T06:42:48.631Z,46.87
2023-04-27T06:43:48.626Z,46.33
2023-04-27T06:44:48.637Z,44.01
2023-04-27T06:45:48.682Z,49.32
2023-04-27T06:46:48.586Z,45.78
2023-04-27T06:47:48.595Z,49.88
2023-04-27T06:52:48.074Z,38.96
2023-04-27T06:53:48.047Z,45.40
2023-04-27T06:54:48.048Z,45.94
2023-04-27T06:55:48.826Z,46.83
2023-04-27T06:56:48.050Z,43.03
2023-04-27T06:57:48.101Z,45.58
2023-04-27T06:58:48.022Z,42.70
2023-04-27T06:59:47.982Z,44.08
2023-04-27T07:00:47.965Z,51.37
2023-04-27T07:01:47.971Z,47.58
2023-04-27T07:02:47.997Z,47.24
2023-04-27T07:03:48.164Z,44.32
2023-04-27T07:04:48.010Z,43.13
2023-04-27T07:05:47.931Z,47.52
2023-04-27T07:06:47.899Z,48.21
2023-04-27T07:07:47.926Z,44.38
2023-04-27T07:08:47.886Z,44.04
2023-04-27T07:09:47.877Z,48.73
2023-04-27T07:10:47.862Z,47.52
2023-04-27T07:11:47.859Z,45.95
2023-04-27T07:12:47.853Z,37.87
2023-04-27T07:13:47.832Z,45.44
2023-04-27T07:14:47.854Z,52.97
2023-04-27T07:15:47.843Z,49.91
2023-04-27T07:16:47.846Z,45.31
2023-04-27T07:17:47.852Z,45.10
2023-04-27T07:18:47.782Z,54.74
2023-04-27T07:19:47.772Z,43.72
2023-04-27T07:20:47.763Z,41.77
2023-04-27T07:21:47.746Z,40.03
2023-04-27T07:22:47.737Z,47.59
2023-04-27T07:23:47.743Z,43.67
2023-04-27T07:24:47.710Z,47.31
2023-04-27T07:25:47.705Z,41.47
2023-04-27T07:26:47.694Z,38.37
2023-04-27T07:27:47.687Z,44.55
2023-04-27T07:28:47.683Z,43.87
2023-04-27T07:29:47.666Z,53.25
2023-04-27T07:30:47.649Z,45.05
2023-04-27T07:31:48.201Z,43.53
2023-04-27T07:32:47.654Z,49.57
2023-04-27T07:33:47.631Z,51.18
2023-04-27T07:34:53.660Z,52.15
2023-04-27T07:35:48.604Z,43.82
2023-04-27T07:36:47.626Z,47.14
2023-04-27T07:40:28.966Z,53.81
2023-04-27T07:41:14.532Z,46.59
2023-04-27T07:56:15.955Z,45.58
2023-04-27T07:57:16.253Z,43.97
2023-04-27T07:58:15.952Z,40.72
2023-04-27T08:11:19.834Z,43.77
2023-04-27T08:12:19.730Z,49.82
2023-04-27T08:13:19.712Z,41.35
2023-04-27T08:14:19.688Z,46.02
2023-04-27T08:15:19.720Z,44.06
2023-04-27T08:16:19.681Z,45.54
2023-04-27T08:17:19.660Z,46.63
2023-04-27T08:18:19.649Z,42.26
2023-04-27T08:19:19.667Z,50.34
2023-04-27T08:20:19.623Z,45.11
2023-04-27T08:21:19.614Z,46.97
2023-04-27T08:22:19.600Z,43.42
2023-04-27T08:23:19.580Z,46.26
2023-04-27T08:24:19.587Z,43.77
2023-04-27T08:25:19.580Z,40.29
2023-04-27T08:26:19.564Z,41.02
2023-04-27T08:27:19.600Z,42.68
2023-04-27T08:28:19.544Z,49.29
2023-04-27T08:29:27.705Z,41.11
2023-04-27T08:30:20.510Z,48.25
2023-04-27T08:31:19.540Z,47.08
2023-04-27T08:32:19.504Z,49.32
2023-04-27T08:33:19.559Z,41.11
2023-04-27T08:34:19.489Z,41.91
2023-04-27T08:35:19.465Z,41.30
2023-04-27T08:36:19.479Z,41.16
2023-04-27T08:37:19.442Z,46.19
2023-04-27T08:38:19.443Z,40.64
2023-04-27T08:39:19.431Z,44.43
2023-04-27T08:40:19.411Z,48.08
2023-04-27T08:41:21.997Z,45.26
2023-04-27T08:42:19.396Z,44.77
2023-04-27T08:43:19.378Z,45.13
2023-04-27T08:44:19.381Z,47.46
2023-04-27T08:45:19.357Z,44.28
2023-04-27T08:46:19.375Z,43.12
2023-04-27T08:47:28.294Z,39.08
2023-04-27T08:48:20.416Z,38.03
2023-04-27T08:49:19.511Z,39.94
2023-04-27T08:50:19.328Z,45.58
2023-04-27T08:51:19.294Z,43.09
2023-04-27T08:52:19.285Z,42.27
2023-04-27T08:53:19.279Z,42.71
2023-04-27T08:54:19.281Z,42.14
2023-04-27T08:55:19.249Z,46.10
2023-04-27T08:56:19.253Z,45.89
2023-04-27T08:57:19.227Z,48.93
2023-04-27T08:58:19.215Z,42.31
2023-04-27T08:59:19.215Z,41.99
2023-04-27T09:00:19.200Z,42.07
2023-04-27T09:01:19.215Z,48.26
2023-04-27T09:02:19.243Z,42.76
2023-04-27T09:03:19.291Z,42.69
2023-04-27T09:04:19.347Z,47.14
2023-04-27T09:05:19.245Z,44.51
2023-04-27T09:06:19.934Z,43.88
2023-04-27T09:07:19.153Z,48.78
2023-04-27T09:08:19.120Z,42.91
2023-04-27T09:09:19.124Z,39.41
2023-04-27T09:10:19.094Z,40.87
2023-04-27T09:11:19.088Z,36.96
2023-04-27T09:12:19.148Z,47.03
2023-04-27T09:13:19.058Z,44.09
2023-04-27T09:14:19.122Z,48.40
2023-04-27T09:15:54.882Z,49.08
2023-04-27T09:16:19.046Z,44.78
2023-04-27T09:22:37.286Z,38.67
2023-04-27T09:23:37.275Z,44.72
2023-04-27T09:24:37.290Z,50.28
2023-04-27T09:25:37.261Z,43.66
2023-04-27T09:26:37.274Z,45.22
2023-04-27T09:27:37.254Z,44.97
2023-04-27T09:28:37.525Z,43.37
2023-04-27T09:29:37.236Z,43.05
2023-04-27T09:30:37.200Z,45.87
2023-04-27T09:31:37.239Z,49.23
2023-04-27T09:32:37.213Z,42.00
2023-04-27T09:33:37.172Z,44.06
2023-04-27T09:34:37.176Z,44.87
2023-04-27T09:35:37.151Z,44.26
2023-04-27T09:36:37.138Z,42.20
2023-04-27T09:37:37.134Z,46.99
2023-04-27T09:38:37.122Z,39.49
2023-04-27T09:39:37.125Z,48.46
2023-04-27T09:40:37.101Z,40.58
2023-04-27T09:41:37.090Z,36.35
2023-04-27T09:42:40.063Z,47.38
2023-04-27T09:43:38.389Z,40.91
2023-04-27T09:44:46.140Z,41.01
2023-04-27T09:45:38.247Z,45.97
2023-04-27T09:46:38.277Z,38.89
2023-04-27T09:47:38.278Z,37.42
2023-04-27T09:48:38.256Z,45.92
2023-04-27T09:49:38.334Z,46.36
2023-04-27T09:50:38.353Z,44.19
2023-04-27T09:51:38.171Z,41.32
2023-04-27T09:52:38.175Z,42.93
2023-04-27T09:53:38.147Z,43.06
2023-04-27T09:54:38.173Z,45.70
2023-04-27T09:55:38.160Z,38.67
2023-04-27T09:56:38.149Z,47.54
2023-04-27T09:57:38.141Z,40.10
2023-04-27T09:58:38.096Z,45.06
2023-04-27T09:59:38.144Z,52.47
2023-04-27T10:00:38.103Z,43.94
2023-04-27T10:01:38.068Z,49.21
2023-04-27T10:02:52.250Z,43.06
2023-04-27T10:03:40.067Z,44.08
2023-04-27T10:04:38.097Z,45.45
2023-04-27T10:05:37.991Z,46.33
2023-04-27T10:06:37.954Z,44.06
2023-04-27T10:07:37.950Z,39.94
2023-04-27T10:08:37.939Z,46.58
2023-04-27T10:09:37.942Z,44.20
2023-04-27T10:10:37.938Z,44.21
2023-04-27T10:11:37.917Z,43.52
2023-04-27T10:12:37.906Z,39.51
2023-04-27T10:13:37.879Z,43.45
2023-04-27T10:14:38.898Z,40.43
2023-04-27T10:15:37.868Z,44.28
2023-04-27T10:16:37.945Z,45.73
2023-04-27T10:17:37.915Z,45.65
2023-04-27T10:18:37.846Z,47.85
2023-04-27T10:19:37.855Z,37.36
2023-04-27T10:20:37.838Z,51.17
2023-04-27T10:21:37.807Z,50.78
2023-04-27T10:22:37.803Z,48.51
2023-04-27T10:23:37.803Z,42.25
2023-04-27T10:24:37.817Z,45.23
2023-04-27T10:25:37.780Z,46.04
2023-04-27T10:26:39.941Z,43.49
2023-04-27T10:27:38.753Z,49.01
2023-04-27T10:28:37.768Z,51.67
2023-04-27T10:29:37.759Z,46.28
2023-04-27T10:30:37.816Z,48.02
2023-04-27T10:31:37.716Z,52.39
2023-04-27T10:32:37.758Z,42.13
2023-04-27T10:33:37.711Z,46.46
2023-04-27T10:34:37.697Z,42.70
2023-04-27T10:35:59.960Z,46.48
2023-04-27T10:36:37.735Z,45.49
2023-04-27T10:37:37.671Z,43.55
2023-04-27T10:38:37.645Z,43.90
2023-04-27T10:39:47.768Z,45.57
2023-04-27T10:40:39.666Z,48.06
2023-04-27T10:41:37.664Z,47.77
2023-04-27T10:42:37.680Z,50.52
2023-04-27T10:43:37.618Z,52.24
2023-04-27T10:44:37.619Z,46.97
2023-04-27T10:45:37.596Z,47.82
2023-04-27T10:46:37.751Z,43.53
2023-04-27T10:48:24.203Z,43.90
2023-04-27T10:48:37.570Z,53.01
2023-04-27T10:50:10.689Z,47.56
2023-04-27T10:50:37.558Z,41.03
2023-04-27T10:51:37.543Z,46.65
2023-04-27T10:52:37.518Z,40.99
2023-04-27T10:53:37.528Z,46.27
2023-04-27T10:54:37.546Z,47.40
2023-04-27T10:55:37.594Z,47.07
2023-04-27T10:56:37.567Z,47.61
2023-04-27T10:57:37.503Z,43.15
2023-04-27T10:58:48.190Z,46.52
2023-04-27T10:59:39.495Z,44.10
2023-04-27T11:00:37.507Z,45.14
2023-04-27T11:01:37.533Z,44.25
2023-04-27T11:02:37.570Z,41.89
2023-04-27T11:03:37.583Z,45.43
2023-04-27T11:04:37.501Z,48.37
2023-04-27T11:05:37.504Z,46.99
2023-04-27T11:06:37.426Z,42.19
2023-04-27T11:07:37.433Z,41.04
2023-04-27T11:08:37.398Z,46.12
2023-04-27T11:09:37.405Z,45.20
2023-04-27T11:10:37.365Z,43.24
2023-04-27T11:11:37.562Z,41.88
2023-04-27T11:12:37.396Z,40.25
2023-04-27T11:13:37.444Z,41.68
2023-04-27T11:14:37.430Z,53.58
2023-04-27T11:15:37.487Z,47.67
2023-04-27T11:16:37.448Z,43.31
2023-04-27T11:17:37.400Z,43.03
2023-04-27T11:18:37.338Z,43.86
2023-04-27T11:19:37.563Z,45.90
2023-04-27T11:20:38.348Z,42.14
2023-04-27T11:21:39.586Z,45.64
2023-04-27T11:22:37.336Z,46.05
2023-04-27T11:23:37.306Z,47.21
2023-04-27T11:24:37.410Z,45.75
2023-04-27T11:25:37.247Z,45.28
2023-04-27T11:26:37.265Z,42.66
2023-04-27T11:27:37.230Z,48.63
2023-04-27T11:28:37.245Z,42.75
2023-04-27T11:29:37.213Z,46.86
2023-04-27T11:30:37.246Z,42.16
2023-04-27T11:31:37.305Z,41.89
2023-04-27T11:32:37.301Z,47.60
2023-04-27T11:33:37.211Z,44.48
2023-04-27T11:34:37.129Z,48.29
2023-04-27T11:35:37.147Z,45.34
2023-04-27T11:36:37.138Z,46.03
2023-04-27T11:37:37.199Z,41.54
2023-04-27T11:38:37.245Z,48.35
2023-04-27T11:39:38.087Z,44.07
2023-04-27T11:40:37.189Z,39.10
2023-04-27T11:41:37.162Z,46.44
2023-04-27T11:42:37.102Z,46.77
2023-04-27T11:43:37.089Z,40.89
2023-04-27T11:44:37.025Z,39.55
2023-04-27T11:45:37.151Z,40.16
2023-04-27T11:46:37.156Z,47.44
2023-04-27T11:47:37.078Z,40.15
2023-04-27T11:48:37.097Z,39.79
2023-04-27T11:49:37.069Z,39.13
2023-04-27T11:50:38.419Z,44.78
2023-04-27T11:51:36.976Z,46.26
2023-04-27T11:52:37.027Z,44.37
2023-04-27T11:53:37.008Z,44.62
2023-04-27T11:54:36.986Z,42.94
2023-04-27T11:55:37.016Z,40.40
2023-04-27T11:56:36.960Z,51.73
2023-04-27T11:57:36.910Z,46.67
2023-04-27T11:58:36.940Z,45.26
2023-04-27T11:59:36.924Z,48.17
2023-04-27T12:00:36.906Z,50.10
2023-04-27T12:01:38.426Z,54.28
2023-04-27T12:02:37.921Z,54.06
2023-04-27T12:03:37.031Z,51.28
2023-04-27T12:04:37.112Z,50.20
2023-04-27T12:05:36.836Z,51.39
2023-04-27T12:06:36.868Z,50.57
2023-04-27T12:07:36.847Z,54.46
2023-04-27T12:08:36.810Z,49.81
2023-04-27T12:09:36.947Z,50.98
2023-04-27T12:10:36.847Z,52.64
2023-04-27T12:11:36.811Z,49.50
2023-04-27T12:12:36.786Z,51.59
2023-04-27T12:13:36.765Z,52.40
2023-04-27T12:14:36.772Z,51.37
2023-04-27T12:15:36.753Z,52.98
2023-04-27T12:16:36.787Z,54.45
2023-04-27T12:17:36.775Z,52.13
2023-04-27T12:18:36.756Z,54.88
2023-04-27T12:19:37.410Z,51.98
2023-04-27T12:20:36.711Z,53.11
2023-04-27T12:21:36.680Z,51.95
2023-04-27T12:22:36.640Z,50.78
2023-04-27T12:23:36.693Z,52.52
2023-04-27T12:24:36.790Z,50.72
2023-04-27T12:25:36.721Z,53.51
2023-04-27T12:26:36.643Z,51.47
2023-04-27T12:27:36.631Z,51.90
2023-04-27T12:28:36.605Z,51.48
2023-04-27T12:29:36.691Z,50.98
2023-04-27T12:30:36.656Z,49.63
2023-04-27T12:31:36.715Z,49.71
2023-04-27T12:32:36.561Z,49.94
2023-04-27T12:33:36.523Z,43.90
2023-04-27T12:34:36.698Z,49.59
2023-04-27T12:35:36.567Z,44.33
2023-04-27T12:36:36.556Z,44.28
2023-04-27T12:37:36.544Z,42.60
2023-04-27T12:38:36.508Z,44.23
2023-04-27T12:39:36.583Z,39.38
2023-04-27T12:40:36.565Z,39.71
2023-04-27T12:41:36.485Z,41.67
2023-04-27T12:42:36.481Z,44.05
2023-04-27T12:43:36.470Z,42.11
2023-04-27T12:44:36.465Z,43.49
2023-04-27T12:45:36.470Z,49.71
2023-04-27T12:46:36.518Z,45.36
2023-04-27T12:48:37.457Z,41.24
2023-04-27T12:49:36.438Z,44.75
2023-04-27T12:50:36.396Z,45.68
2023-04-27T12:51:36.375Z,46.87
2023-04-27T12:52:36.353Z,42.83
2023-04-27T12:53:36.377Z,42.50
2023-04-27T12:54:36.331Z,45.54
2023-04-27T12:55:36.299Z,45.18
2023-04-27T12:56:36.303Z,44.89
2023-04-27T12:57:36.392Z,47.00
2023-04-27T12:58:36.307Z,44.88
2023-04-27T12:59:36.346Z,44.86
2023-04-27T13:00:36.322Z,48.42
2023-04-27T13:01:36.380Z,45.71
2023-04-27T13:02:36.448Z,51.82
2023-04-27T13:03:36.456Z,47.27
2023-04-27T13:04:36.504Z,45.50
2023-04-27T13:05:36.275Z,48.30
2023-04-27T13:06:36.280Z,51.34
2023-04-27T13:07:36.209Z,51.33
2023-04-27T13:08:36.237Z,49.10
2023-04-27T13:09:36.218Z,57.37
2023-04-27T13:10:36.238Z,49.00
2023-04-27T13:11:36.225Z,49.47
2023-04-27T13:12:36.204Z,46.25
2023-04-27T13:13:36.201Z,47.79
2023-04-27T13:14:36.148Z,47.71
2023-04-27T13:15:36.251Z,49.27
2023-04-27T13:16:36.252Z,47.76
2023-04-27T13:17:36.203Z,50.32
2023-04-27T13:18:36.066Z,46.34
2023-04-27T13:19:36.055Z,46.00
2023-04-27T13:20:36.060Z,46.15
2023-04-27T13:21:36.041Z,48.16
2023-04-27T13:22:36.071Z,45.05
2023-04-27T13:23:36.042Z,45.07
2023-04-27T13:24:36.071Z,46.72
2023-04-27T13:25:36.038Z,43.72
2023-04-27T13:26:36.178Z,43.84
2023-04-27T13:27:36.109Z,50.39
2023-04-27T13:28:36.040Z,47.29
2023-04-27T13:29:36.004Z,48.27
2023-04-27T13:30:37.038Z,48.22
2023-04-27T13:31:36.030Z,40.41
2023-04-27T13:32:36.126Z,43.43
2023-04-27T13:33:36.030Z,47.09
2023-04-27T13:34:35.987Z,44.48